createdAt,value
2022-08-28T00:00:59.578Z,87.23
2022-08-28T00:11:21.564Z,87.18
2022-08-28T00:21:43.403Z,88.00
2022-08-28T00:32:05.533Z,88.68
2022-08-28T00:42:27.579Z,89.38
2022-08-28T00:52:55.050Z,90.53
2022-08-28T01:03:16.823Z,89.53
2022-08-28T01:13:41.513Z,90.94
2022-08-28T01:24:09.112Z,91.03
2022-08-28T01:34:31.550Z,91.70
2022-08-28T01:44:54.273Z,92.34
2022-08-28T01:55:15.953Z,92.00
2022-08-28T02:05:43.105Z,92.25
2022-08-28T02:16:07.170Z,91.61
2022-08-28T02:26:30.214Z,91.74
2022-08-28T02:36:51.791Z,93.02
2022-08-28T02:47:15.151Z,92.88
2022-08-28T02:57:37.090Z,93.39
2022-08-28T03:07:59.029Z,94.56
2022-08-28T03:18:20.887Z,94.02
2022-08-28T03:28:50.781Z,92.93
2022-08-28T03:39:13.838Z,93.17
2022-08-28T03:49:35.419Z,94.63
2022-08-28T03:59:56.979Z,94.49
2022-08-28T04:10:18.503Z,95.16
2022-08-28T04:20:40.060Z,93.76
2022-08-28T04:31:01.804Z,94.44
2022-08-28T04:41:23.351Z,93.03
2022-08-28T04:51:44.973Z,92.88
2022-08-28T05:02:08.569Z,92.19
2022-08-28T05:12:30.100Z,92.99
2022-08-28T05:22:51.616Z,93.12
2022-08-28T05:33:14.806Z,92.70
2022-08-28T05:43:36.848Z,90.57
2022-08-28T05:53:58.642Z,89.88
2022-08-28T06:04:25.442Z,89.74
2022-08-28T06:14:47.204Z,88.71
2022-08-28T06:25:11.113Z,87.08
2022-08-28T06:35:34.080Z,86.21
2022-08-28T06:45:57.641Z,85.18
2022-08-28T06:56:26.117Z,84.86
2022-08-28T07:06:54.824Z,82.85
2022-08-28T07:17:16.600Z,80.09
2022-08-28T07:27:38.412Z,76.13
2022-08-28T07:37:59.937Z,74.79
2022-08-28T07:48:22.139Z,73.01
2022-08-28T07:58:43.810Z,69.98
2022-08-28T08:09:07.314Z,69.52
2022-08-28T08:19:28.944Z,71.83
2022-08-28T08:29:50.997Z,71.33
2022-08-28T08:40:19.055Z,70.94
2022-08-28T08:50:41.383Z,69.56
2022-08-28T09:01:23.757Z,67.99
2022-08-28T09:11:56.536Z,66.65
2022-08-28T09:22:19.528Z,65.01
2022-08-28T09:32:45.106Z,63.17
2022-08-28T09:43:31.358Z,59.12
2022-08-28T09:53:53.521Z,58.80
2022-08-28T10:04:36.765Z,56.62
2022-08-28T10:15:16.539Z,53.08
2022-08-28T10:25:52.241Z,55.26
2022-08-28T10:36:34.561Z,54.80
2022-08-28T10:46:58.793Z,54.69
2022-08-28T10:57:53.018Z,56.08
2022-08-28T11:08:29.412Z,58.76
2022-08-28T11:19:10.080Z,60.68
2022-08-28T11:30:06.864Z,60.55
2022-08-28T11:40:29.980Z,58.32
2022-08-28T11:51:02.574Z,58.92
2022-08-28T12:01:36.171Z,56.83
2022-08-28T12:12:21.772Z,60.07
2022-08-28T12:22:54.081Z,55.98
2022-08-28T12:33:46.144Z,58.15
2022-08-28T12:44:12.331Z,60.87
2022-08-28T12:54:35.460Z,60.80
2022-08-28T13:05:10.585Z,59.94
2022-08-28T13:16:11.864Z,59.81
2022-08-28T13:26:35.978Z,61.33
2022-08-28T13:37:07.237Z,58.85
2022-08-28T13:47:37.002Z,54.75
2022-08-28T13:57:58.903Z,51.46
2022-08-28T14:08:20.731Z,56.18
2022-08-28T14:18:42.320Z,54.26
2022-08-28T14:29:07.731Z,54.07
2022-08-28T14:39:31.014Z,55.57
2022-08-28T14:49:52.696Z,58.08
2022-08-28T15:00:16.471Z,56.19
2022-08-28T15:10:39.854Z,56.18
2022-08-28T15:21:01.690Z,57.83
2022-08-28T15:31:24.680Z,56.79
2022-08-28T15:41:47.115Z,54.74
2022-08-28T15:52:08.706Z,57.39
2022-08-28T16:02:30.517Z,58.06
2022-08-28T16:12:57.444Z,55.41
2022-08-28T16:23:19.354Z,55.04
2022-08-28T16:33:41.167Z,54.18
2022-08-28T16:44:02.964Z,57.18
2022-08-28T16:54:24.522Z,61.61
2022-08-28T17:04:46.047Z,61.01
2022-08-28T17:15:09.022Z,61.22
2022-08-28T17:25:33.003Z,60.26
2022-08-28T17:35:55.676Z,59.59
2022-08-28T17:46:18.445Z,59.87
2022-08-28T17:56:41.132Z,62.41
2022-08-28T18:07:02.771Z,63.07
2022-08-28T18:17:25.519Z,62.75
2022-08-28T18:27:47.089Z,61.75
2022-08-28T18:38:09.372Z,60.89
2022-08-28T18:48:31.633Z,60.58
2022-08-28T18:58:53.627Z,60.02
2022-08-28T19:09:20.491Z,60.04
2022-08-28T19:19:42.405Z,61.02
2022-08-28T19:30:10.362Z,61.41
2022-08-28T19:40:33.717Z,63.40
2022-08-28T19:51:06.366Z,63.49
2022-08-28T20:01:44.899Z,63.60
2022-08-28T20:12:06.566Z,63.92
2022-08-28T20:22:28.767Z,63.98
2022-08-28T20:32:50.341Z,63.66
2022-08-28T20:43:12.011Z,64.41
2022-08-28T20:53:37.385Z,64.91
2022-08-28T21:03:59.889Z,65.91
2022-08-28T21:14:21.635Z,67.77
2022-08-28T21:24:43.160Z,68.47
2022-08-28T21:35:06.823Z,70.07
2022-08-28T21:45:28.516Z,71.63
2022-08-28T21:55:51.586Z,72.40
2022-08-28T22:06:19.409Z,73.67
2022-08-28T22:16:41.042Z,73.64
2022-08-28T22:27:02.609Z,75.70
2022-08-28T22:37:25.789Z,74.85
2022-08-28T22:47:51.311Z,75.10
2022-08-28T22:58:12.988Z,75.67
2022-08-28T23:08:35.375Z,75.90
2022-08-28T23:19:09.096Z,76.52
2022-08-28T23:29:31.881Z,76.09
2022-08-28T23:39:54.515Z,76.79
2022-08-28T23:50:19.567Z,77.30
